Time;durP1;ratioP1;P1;durP2;ratioP2;P2;SDS_P1;SDS_P2;PMS_P1;PMS_P2;Temp;Humidity;BMP_temperature;BMP_pressure;BME280_temperature;BME280_humidity;BME280_pressure;Samples;Min_cycle;Max_cycle;Signal;HPM_P1;HPM_P2
2022/08/02 00:00:09;;;;;;;0.10;0.10;;;;;;;;;;6156847;23;20510;-93
2022/08/02 00:02:35;;;;;;;0.10;0.10;;;;;;;;;;6219907;23;20024;-93
2022/08/02 00:05:01;;;;;;;0.10;0.10;;;;;;;;;;6170415;23;20012;-93
2022/08/02 00:07:27;;;;;;;0.10;0.10;;;;;;;;;;6170368;23;20022;-92
2022/08/02 00:09:53;;;;;;;0.10;0.10;;;;;;;;;;6169504;23;20019;-93
2022/08/02 00:12:20;;;;;;;0.10;0.10;;;;;;;;;;6170815;23;20095;-93
2022/08/02 00:14:47;;;;;;;0.10;0.10;;;;;;;;;;6169516;23;20008;-93
2022/08/02 00:17:13;;;;;;;0.10;0.10;;;;;;;;;;6219691;23;20031;-92
2022/08/02 00:19:39;;;;;;;0.10;0.10;;;;;;;;;;6169553;23;20402;-93
2022/08/02 00:22:05;;;;;;;0.10;0.10;;;;;;;;;;6170226;23;20019;-94
2022/08/02 00:24:31;;;;;;;0.20;0.20;;;;;;;;;;6195248;23;20456;-93
2022/08/02 00:26:57;;;;;;;0.10;0.10;;;;;;;;;;6169452;23;20026;-94
2022/08/02 00:29:23;;;;;;;0.10;0.10;;;;;;;;;;6170133;23;20460;-94
2022/08/02 00:31:51;;;;;;;0.20;0.20;;;;;;;;;;6170949;23;20031;-93
2022/08/02 00:34:17;;;;;;;0.10;0.10;;;;;;;;;;6244519;23;20091;-94
2022/08/02 00:36:44;;;;;;;0.10;0.10;;;;;;;;;;6220042;23;20008;-94
2022/08/02 00:39:10;;;;;;;0.10;0.10;;;;;;;;;;6170234;23;20068;-94
2022/08/02 00:41:44;;;;;;;0.10;0.10;;;;;;;;;;6194844;23;20087;-93
2022/08/02 00:44:10;;;;;;;0.10;0.10;;;;;;;;;;6219938;23;20131;-93
2022/08/02 00:46:36;;;;;;;0.10;0.10;;;;;;;;;;6169445;23;20015;-93
2022/08/02 00:49:02;;;;;;;0.10;0.10;;;;;;;;;;6169693;23;20449;-92
2022/08/02 00:51:28;;;;;;;0.10;0.10;;;;;;;;;;6169479;23;20012;-93
2022/08/02 00:53:54;;;;;;;0.10;0.10;;;;;;;;;;6169945;23;20008;-93
2022/08/02 00:56:20;;;;;;;0.10;0.10;;;;;;;;;;6194123;23;20012;-93
2022/08/02 00:58:46;;;;;;;0.10;0.10;;;;;;;;;;6169024;23;20062;-93
2022/08/02 01:01:12;;;;;;;0.10;0.10;;;;;;;;;;6169350;23;20012;-92
2022/08/02 01:03:39;;;;;;;0.10;0.10;;;;;;;;;;6168572;23;20008;-92
2022/08/02 01:06:05;;;;;;;0.10;0.10;;;;;;;;;;6217928;23;20019;-92
2022/08/02 01:08:31;;;;;;;0.10;0.10;;;;;;;;;;6168891;23;20012;-92
2022/08/02 01:10:57;;;;;;;0.10;0.10;;;;;;;;;;6168702;23;20030;-92
2022/08/02 01:13:23;;;;;;;0.10;0.10;;;;;;;;;;6194126;23;20058;-92
2022/08/02 01:15:51;;;;;;;0.10;0.10;;;;;;;;;;6168805;23;20457;-92
2022/08/02 01:18:38;;;;;;;0.10;0.10;;;;;;;;;;6168470;23;20577;-92
2022/08/02 01:21:08;;;;;;;0.10;0.10;;;;;;;;;;6178635;23;20051;-91
2022/08/02 01:23:45;;;;;;;0.10;0.10;;;;;;;;;;6207551;23;20043;-92
2022/08/02 01:26:20;;;;;;;0.10;0.10;;;;;;;;;;6182270;23;20012;-91
2022/08/02 01:28:46;;;;;;;0.10;0.10;;;;;;;;;;6203168;23;20050;-91
2022/08/02 01:31:18;;;;;;;0.10;0.10;;;;;;;;;;6195266;23;20012;-91
2022/08/02 01:33:47;;;;;;;0.10;0.10;;;;;;;;;;6195215;23;20015;-91
2022/08/02 01:36:13;;;;;;;0.10;0.10;;;;;;;;;;6171153;23;20452;-91
2022/08/02 01:38:40;;;;;;;0.10;0.10;;;;;;;;;;6195312;23;20012;-91
2022/08/02 01:41:07;;;;;;;0.10;0.10;;;;;;;;;;6170794;23;20008;-91
2022/08/02 01:43:33;;;;;;;0.00;0.00;;;;;;;;;;6170401;23;20136;-92
2022/08/02 01:45:59;;;;;;;0.10;0.10;;;;;;;;;;6171770;23;20101;-92
2022/08/02 01:48:26;;;;;;;0.20;0.20;;;;;;;;;;6170606;23;20023;-91
2022/08/02 01:50:52;;;;;;;0.10;0.10;;;;;;;;;;6170148;23;20012;-92
2022/08/02 01:53:18;;;;;;;0.10;0.10;;;;;;;;;;6195503;23;20012;-91
2022/08/02 01:55:45;;;;;;;0.10;0.10;;;;;;;;;;6195598;23;20077;-90
2022/08/02 01:58:13;;;;;;;0.10;0.10;;;;;;;;;;6169763;23;20012;-90
2022/08/02 02:00:39;;;;;;;0.10;0.10;;;;;;;;;;6195234;23;20016;-91
2022/08/02 02:03:05;;;;;;;0.10;0.10;;;;;;;;;;6170570;23;20020;-90
2022/08/02 02:05:31;;;;;;;0.10;0.10;;;;;;;;;;6169464;23;20240;-90
2022/08/02 02:07:58;;;;;;;0.10;0.10;;;;;;;;;;6170153;23;20092;-91
2022/08/02 02:10:25;;;;;;;0.10;0.10;;;;;;;;;;6172143;23;20095;-90
2022/08/02 02:12:51;;;;;;;0.10;0.10;;;;;;;;;;6169281;23;20434;-91
2022/08/02 02:15:17;;;;;;;0.10;0.10;;;;;;;;;;6193752;23;20019;-91
2022/08/02 02:17:43;;;;;;;0.10;0.10;;;;;;;;;;6193943;23;20008;-92
2022/08/02 02:20:13;;;;;;;0.10;0.10;;;;;;;;;;6169035;23;20020;-92
2022/08/02 02:22:39;;;;;;;0.17;0.17;;;;;;;;;;6168876;23;20078;-92
2022/08/02 02:25:08;;;;;;;0.10;0.10;;;;;;;;;;6193930;23;20089;-92
2022/08/02 02:27:34;;;;;;;0.10;0.10;;;;;;;;;;6193843;23;20016;-93
2022/08/02 02:30:00;;;;;;;0.10;0.10;;;;;;;;;;6168188;23;20075;-93
2022/08/02 02:32:27;;;;;;;0.10;0.10;;;;;;;;;;6169409;23;20322;-93
2022/08/02 02:34:53;;;;;;;0.10;0.10;;;;;;;;;;6169459;23;20008;-94
2022/08/02 02:37:20;;;;;;;0.10;0.10;;;;;;;;;;6169539;23;20016;-94
2022/08/02 02:39:46;;;;;;;0.10;0.10;;;;;;;;;;6169289;23;20022;-94
2022/08/02 02:42:13;;;;;;;0.10;0.10;;;;;;;;;;6169663;23;20012;-94
2022/08/02 02:44:39;;;;;;;0.10;0.10;;;;;;;;;;6194384;23;20475;-95
2022/08/02 02:47:05;;;;;;;0.13;0.13;;;;;;;;;;6168873;23;20848;-93
2022/08/02 02:49:32;;;;;;;0.10;0.10;;;;;;;;;;6169043;23;20027;-94
2022/08/02 02:51:58;;;;;;;0.10;0.10;;;;;;;;;;6169048;23;20008;-94
2022/08/02 02:54:24;;;;;;;0.10;0.10;;;;;;;;;;6169360;23;20012;-93
2022/08/02 02:56:50;;;;;;;0.20;0.20;;;;;;;;;;6169358;23;20015;-93
2022/08/02 02:59:16;;;;;;;0.10;0.10;;;;;;;;;;6169041;23;20027;-94
2022/08/02 03:01:42;;;;;;;0.10;0.10;;;;;;;;;;6169460;23;20028;-93
2022/08/02 03:04:09;;;;;;;0.10;0.10;;;;;;;;;;6194256;23;20051;-94
2022/08/02 03:06:38;;;;;;;0.10;0.10;;;;;;;;;;6168577;23;20030;-90
2022/08/02 03:09:05;;;;;;;0.10;0.10;;;;;;;;;;6192846;23;20123;-93
2022/08/02 03:11:32;;;;;;;0.10;0.10;;;;;;;;;;6168279;23;20055;-94
2022/08/02 03:13:58;;;;;;;0.10;0.10;;;;;;;;;;6169360;23;20468;-93
2022/08/02 03:16:27;;;;;;;0.10;0.10;;;;;;;;;;6168753;23;20260;-92
2022/08/02 03:18:53;;;;;;;0.10;0.10;;;;;;;;;;6168917;23;20019;-91
2022/08/02 03:21:19;;;;;;;0.10;0.10;;;;;;;;;;6168747;23;20024;-92
2022/08/02 03:23:45;;;;;;;0.10;0.10;;;;;;;;;;6168461;23;20457;-92
2022/08/02 03:26:11;;;;;;;0.10;0.10;;;;;;;;;;6168342;23;20019;-93
2022/08/02 03:28:37;;;;;;;0.10;0.10;;;;;;;;;;6170025;23;20012;-92
2022/08/02 03:31:03;;;;;;;0.10;0.10;;;;;;;;;;6195600;23;20019;-92
2022/08/02 03:33:29;;;;;;;0.10;0.10;;;;;;;;;;6171032;23;20008;-93
2022/08/02 03:35:56;;;;;;;0.10;0.10;;;;;;;;;;6170553;23;20097;-92
2022/08/02 03:38:22;;;;;;;0.10;0.10;;;;;;;;;;6171070;23;20050;-93
2022/08/02 03:40:49;;;;;;;0.10;0.10;;;;;;;;;;6171821;23;20016;-91
2022/08/02 03:43:15;;;;;;;0.10;0.10;;;;;;;;;;6171010;23;20020;-92
2022/08/02 03:45:46;;;;;;;0.10;0.10;;;;;;;;;;6172421;23;20051;-91
2022/08/02 03:48:12;;;;;;;0.10;0.10;;;;;;;;;;6172835;23;20013;-92
2022/08/02 03:50:39;;;;;;;0.10;0.10;;;;;;;;;;6170197;23;20441;-93
2022/08/02 03:53:05;;;;;;;0.10;0.10;;;;;;;;;;6170431;23;20453;-93
2022/08/02 03:55:32;;;;;;;0.10;0.10;;;;;;;;;;6170402;23;20083;-93
2022/08/02 03:57:58;;;;;;;0.10;0.10;;;;;;;;;;6170327;23;20054;-93
2022/08/02 04:00:24;;;;;;;0.10;0.10;;;;;;;;;;6169845;23;20020;-93
2022/08/02 04:02:50;;;;;;;0.20;0.20;;;;;;;;;;6169895;23;20065;-92
2022/08/02 04:05:16;;;;;;;0.10;0.10;;;;;;;;;;6194384;23;20023;-93
2022/08/02 04:07:42;;;;;;;0.10;0.10;;;;;;;;;;6169667;23;20023;-93
2022/08/02 04:10:09;;;;;;;0.10;0.10;;;;;;;;;;6169888;23;20023;-92
2022/08/02 04:12:35;;;;;;;0.10;0.10;;;;;;;;;;6170881;23;20020;-93
2022/08/02 04:15:01;;;;;;;0.10;0.10;;;;;;;;;;6195553;23;20008;-93
2022/08/02 04:17:27;;;;;;;0.10;0.10;;;;;;;;;;6169963;23;20019;-92
2022/08/02 04:19:54;;;;;;;0.10;0.10;;;;;;;;;;6170622;23;20109;-92
2022/08/02 04:22:25;;;;;;;0.10;0.10;;;;;;;;;;6170302;23;20452;-93
2022/08/02 04:24:51;;;;;;;0.10;0.10;;;;;;;;;;6171431;23;20016;-92
2022/08/02 04:27:17;;;;;;;0.10;0.10;;;;;;;;;;6170459;23;20119;-93
2022/08/02 04:29:43;;;;;;;0.10;0.10;;;;;;;;;;6169970;23;20020;-94
2022/08/02 04:32:09;;;;;;;0.10;0.10;;;;;;;;;;6194515;23;20012;-92
2022/08/02 04:34:35;;;;;;;0.10;0.10;;;;;;;;;;6169117;23;20012;-93
2022/08/02 04:37:01;;;;;;;0.43;0.38;;;;;;;;;;6169860;23;20008;-93
2022/08/02 04:39:28;;;;;;;0.10;0.10;;;;;;;;;;6169344;23;20015;-92
2022/08/02 04:41:54;;;;;;;0.10;0.10;;;;;;;;;;6194128;23;20016;-92
2022/08/02 04:44:20;;;;;;;0.10;0.10;;;;;;;;;;6169574;23;20016;-93
2022/08/02 04:46:46;;;;;;;0.10;0.10;;;;;;;;;;6170005;23;20094;-93
2022/08/02 04:49:12;;;;;;;0.10;0.10;;;;;;;;;;6169261;23;20019;-93
2022/08/02 04:51:42;;;;;;;0.10;0.10;;;;;;;;;;6169679;23;20508;-93
2022/08/02 04:54:09;;;;;;;0.10;0.10;;;;;;;;;;6170251;23;20012;-94
2022/08/02 04:56:35;;;;;;;0.10;0.10;;;;;;;;;;6194757;23;20457;-93
2022/08/02 04:59:01;;;;;;;0.10;0.10;;;;;;;;;;6170000;22;20019;-92
2022/08/02 05:01:27;;;;;;;0.10;0.10;;;;;;;;;;6169382;23;20065;-93
2022/08/02 05:03:55;;;;;;;0.10;0.10;;;;;;;;;;6169517;23;20042;-92
2022/08/02 05:06:21;;;;;;;0.10;0.10;;;;;;;;;;6193741;23;20043;-89
2022/08/02 05:08:48;;;;;;;0.13;0.13;;;;;;;;;;6193413;23;20016;-89
2022/08/02 05:11:14;;;;;;;0.10;0.10;;;;;;;;;;6168443;23;20027;-88
2022/08/02 05:13:40;;;;;;;0.10;0.10;;;;;;;;;;6168672;23;20012;-89
2022/08/02 05:16:06;;;;;;;0.10;0.10;;;;;;;;;;6168843;23;20018;-90
2022/08/02 05:18:32;;;;;;;0.10;0.10;;;;;;;;;;6168208;23;20008;-89
2022/08/02 05:20:58;;;;;;;0.10;0.10;;;;;;;;;;6168473;23;20041;-89
2022/08/02 05:23:24;;;;;;;0.10;0.10;;;;;;;;;;6168262;23;20023;-90
2022/08/02 05:25:50;;;;;;;0.10;0.10;;;;;;;;;;6168720;23;20012;-90
2022/08/02 05:28:16;;;;;;;1.35;0.40;;;;;;;;;;6168380;23;20341;-89
2022/08/02 05:30:42;;;;;;;0.10;0.10;;;;;;;;;;6168501;23;20020;-89
2022/08/02 05:33:08;;;;;;;0.10;0.10;;;;;;;;;;6168420;23;20012;-90
2022/08/02 05:35:34;;;;;;;0.10;0.10;;;;;;;;;;6193317;23;20404;-89
2022/08/02 05:38:01;;;;;;;0.10;0.10;;;;;;;;;;6168884;23;20012;-88
2022/08/02 05:40:30;;;;;;;0.10;0.10;;;;;;;;;;6219202;23;20016;-89
2022/08/02 05:42:56;;;;;;;0.10;0.10;;;;;;;;;;6168316;23;20019;-90
2022/08/02 05:45:22;;;;;;;0.10;0.10;;;;;;;;;;6168800;23;20012;-89
2022/08/02 05:47:48;;;;;;;0.10;0.10;;;;;;;;;;6193011;23;20016;-93
2022/08/02 05:50:14;;;;;;;0.10;0.10;;;;;;;;;;6168568;23;20044;-91
2022/08/02 05:52:55;;;;;;;0.10;0.10;;;;;;;;;;6168670;23;20012;-93
2022/08/02 05:55:25;;;;;;;0.10;0.10;;;;;;;;;;6193346;23;20008;-92
2022/08/02 05:58:10;;;;;;;0.10;0.10;;;;;;;;;;6193016;23;20019;-92
2022/08/02 06:00:36;;;;;;;0.10;0.10;;;;;;;;;;6168248;23;20043;-92
2022/08/02 06:03:19;;;;;;;0.10;0.10;;;;;;;;;;6193434;23;20110;-93
2022/08/02 06:05:50;;;;;;;0.10;0.10;;;;;;;;;;6193092;23;20016;-90
2022/08/02 06:08:16;;;;;;;0.10;0.10;;;;;;;;;;6193490;23;20020;-93
2022/08/02 06:10:42;;;;;;;0.30;0.30;;;;;;;;;;6169437;23;20012;-93
2022/08/02 06:13:09;;;;;;;0.10;0.10;;;;;;;;;;6168407;23;20087;-92
2022/08/02 06:15:36;;;;;;;0.10;0.10;;;;;;;;;;6167111;23;20016;-93
2022/08/02 06:18:02;;;;;;;0.10;0.10;;;;;;;;;;6168119;23;20012;-92
2022/08/02 06:20:34;;;;;;;0.10;0.10;;;;;;;;;;6167967;23;20083;-92
2022/08/02 06:23:00;;;;;;;0.10;0.10;;;;;;;;;;6194089;23;20016;-93
2022/08/02 06:25:26;;;;;;;0.10;0.10;;;;;;;;;;6193309;23;20012;-92
2022/08/02 06:27:52;;;;;;;0.10;0.10;;;;;;;;;;6168022;23;20016;-92
2022/08/02 06:30:18;;;;;;;0.10;0.10;;;;;;;;;;6168613;23;20612;-93
2022/08/02 06:32:44;;;;;;;0.10;0.10;;;;;;;;;;6168563;23;20330;-95
2022/08/02 06:35:10;;;;;;;0.10;0.10;;;;;;;;;;6168941;23;20055;-93
2022/08/02 06:37:53;;;;;;;0.10;0.10;;;;;;;;;;6168217;23;20012;-94
2022/08/02 06:40:26;;;;;;;0.10;0.10;;;;;;;;;;6192952;23;20008;-93
2022/08/02 06:43:02;;;;;;;0.10;0.10;;;;;;;;;;6168400;23;20079;-93
2022/08/02 06:45:28;;;;;;;0.10;0.10;;;;;;;;;;6192759;23;20460;-94
2022/08/02 06:47:54;;;;;;;0.10;0.10;;;;;;;;;;6168365;23;20091;-93
2022/08/02 06:50:20;;;;;;;0.10;0.10;;;;;;;;;;6168426;23;20022;-93
2022/08/02 06:52:46;;;;;;;0.10;0.10;;;;;;;;;;6193074;23;20035;-94
2022/08/02 06:55:12;;;;;;;0.10;0.10;;;;;;;;;;6194003;23;20069;-96
2022/08/02 06:57:38;;;;;;;0.10;0.10;;;;;;;;;;6168590;23;20019;-96
2022/08/02 07:00:08;;;;;;;0.10;0.10;;;;;;;;;;6168530;23;20027;-96
2022/08/02 07:02:38;;;;;;;0.10;0.10;;;;;;;;;;6195282;23;20019;-95
2022/08/02 07:05:07;;;;;;;0.10;0.10;;;;;;;;;;6171094;23;20087;-94
2022/08/02 07:07:35;;;;;;;0.10;0.10;;;;;;;;;;6170697;23;20039;-93
2022/08/02 07:10:01;;;;;;;0.10;0.10;;;;;;;;;;6192680;23;20070;-93
2022/08/02 07:12:30;;;;;;;0.10;0.10;;;;;;;;;;6169845;23;20012;-94
2022/08/02 07:14:57;;;;;;;0.10;0.10;;;;;;;;;;6169735;23;20055;-93
2022/08/02 07:17:23;;;;;;;0.20;0.20;;;;;;;;;;6170083;23;20016;-91
2022/08/02 07:19:49;;;;;;;0.10;0.10;;;;;;;;;;6169837;23;20441;-91
2022/08/02 07:22:17;;;;;;;0.10;0.10;;;;;;;;;;6170062;23;20471;-94
2022/08/02 07:24:43;;;;;;;0.10;0.10;;;;;;;;;;6170431;23;20453;-94
2022/08/02 07:27:09;;;;;;;0.10;0.10;;;;;;;;;;6169563;23;20012;-94
2022/08/02 07:29:36;;;;;;;0.20;0.20;;;;;;;;;;6169824;23;20016;-94
2022/08/02 07:32:01;;;;;;;0.10;0.10;;;;;;;;;;6170174;23;20012;-91
2022/08/02 07:34:29;;;;;;;0.10;0.10;;;;;;;;;;6170139;23;20014;-95
2022/08/02 07:36:58;;;;;;;0.10;0.10;;;;;;;;;;6191835;23;20425;-92
2022/08/02 07:39:24;;;;;;;0.20;0.20;;;;;;;;;;6169704;23;20009;-92
2022/08/02 07:41:51;;;;;;;0.20;0.20;;;;;;;;;;6194386;23;20012;-92
2022/08/02 07:44:17;;;;;;;0.10;0.10;;;;;;;;;;6169194;23;20012;-91
2022/08/02 07:46:44;;;;;;;0.10;0.10;;;;;;;;;;6169838;23;20016;-92
2022/08/02 07:49:10;;;;;;;0.10;0.10;;;;;;;;;;6169143;23;20474;-92
2022/08/02 07:51:36;;;;;;;0.10;0.10;;;;;;;;;;6169430;23;20008;-92
2022/08/02 07:54:03;;;;;;;0.10;0.10;;;;;;;;;;6193809;23;20008;-92
2022/08/02 07:56:29;;;;;;;0.20;0.20;;;;;;;;;;6169639;23;20012;-92
2022/08/02 07:58:54;;;;;;;0.20;0.20;;;;;;;;;;6169399;22;20020;-93
2022/08/02 08:01:20;;;;;;;0.10;0.10;;;;;;;;;;6169979;23;20008;-92
2022/08/02 08:03:47;;;;;;;0.10;0.10;;;;;;;;;;6195286;23;20122;-93
2022/08/02 08:06:13;;;;;;;0.20;0.20;;;;;;;;;;6170224;23;20008;-92
2022/08/02 08:08:39;;;;;;;0.20;0.20;;;;;;;;;;6195344;23;20040;-92
2022/08/02 08:11:05;;;;;;;0.20;0.20;;;;;;;;;;6169452;23;20043;-93
2022/08/02 08:13:35;;;;;;;0.20;0.20;;;;;;;;;;6194504;23;20087;-93
2022/08/02 08:16:01;;;;;;;0.20;0.20;;;;;;;;;;6193969;23;20450;-92
2022/08/02 08:18:27;;;;;;;0.20;0.20;;;;;;;;;;6169312;23;20377;-93
2022/08/02 08:20:53;;;;;;;0.20;0.20;;;;;;;;;;6194018;23;20023;-93
2022/08/02 08:23:20;;;;;;;0.10;0.10;;;;;;;;;;6168958;23;20448;-92
2022/08/02 08:25:46;;;;;;;0.10;0.10;;;;;;;;;;6169316;23;20274;-91
2022/08/02 08:28:12;;;;;;;0.20;0.20;;;;;;;;;;6168777;23;20450;-92
2022/08/02 08:30:40;;;;;;;0.10;0.10;;;;;;;;;;6168687;23;20065;-92
2022/08/02 08:33:06;;;;;;;0.93;0.93;;;;;;;;;;6193478;23;20008;-93
2022/08/02 08:35:32;;;;;;;0.10;0.10;;;;;;;;;;6169248;23;20334;-92
2022/08/02 08:37:58;;;;;;;0.20;0.20;;;;;;;;;;6169308;23;20012;-92
2022/08/02 08:40:26;;;;;;;0.10;0.10;;;;;;;;;;6168891;23;20012;-92
2022/08/02 08:42:52;;;;;;;0.20;0.20;;;;;;;;;;6169013;23;20020;-93
2022/08/02 08:45:18;;;;;;;0.20;0.20;;;;;;;;;;6169033;23;20034;-92
2022/08/02 08:47:44;;;;;;;0.17;0.17;;;;;;;;;;6193924;23;20442;-92
2022/08/02 08:50:11;;;;;;;0.20;0.20;;;;;;;;;;6168479;23;20042;-92
2022/08/02 08:53:07;;;;;;;0.10;0.10;;;;;;;;;;6168740;23;20449;-92
2022/08/02 08:55:34;;;;;;;0.10;0.10;;;;;;;;;;6193396;23;20524;-92
2022/08/02 08:58:01;;;;;;;0.10;0.10;;;;;;;;;;6168805;23;20069;-92
2022/08/02 09:00:27;;;;;;;0.10;0.10;;;;;;;;;;6168538;23;20453;-91
2022/08/02 09:02:53;;;;;;;0.20;0.20;;;;;;;;;;6168198;23;20016;-91
2022/08/02 09:05:19;;;;;;;0.13;0.13;;;;;;;;;;6193234;23;20319;-92
2022/08/02 09:07:49;;;;;;;0.10;0.10;;;;;;;;;;6169026;23;20346;-92
2022/08/02 09:10:34;;;;;;;0.20;0.20;;;;;;;;;;6168581;23;20046;-93
2022/08/02 09:13:06;;;;;;;0.20;0.20;;;;;;;;;;6218360;23;20036;-92
2022/08/02 09:15:32;;;;;;;0.15;0.15;;;;;;;;;;6168315;23;20031;-92
2022/08/02 09:17:58;;;;;;;0.20;0.20;;;;;;;;;;6168191;23;20073;-92
2022/08/02 09:20:25;;;;;;;0.20;0.20;;;;;;;;;;6168408;23;20052;-92
2022/08/02 09:23:10;;;;;;;0.20;0.20;;;;;;;;;;6168409;23;20016;-91
2022/08/02 09:25:36;;;;;;;0.20;0.20;;;;;;;;;;6193023;23;20051;-92
2022/08/02 09:28:03;;;;;;;0.20;0.20;;;;;;;;;;6168518;23;20085;-92
2022/08/02 09:30:32;;;;;;;0.20;0.20;;;;;;;;;;6168085;23;20066;-92
2022/08/02 09:32:59;;;;;;;0.20;0.20;;;;;;;;;;6168409;23;20355;-92
2022/08/02 09:35:36;;;;;;;0.20;0.20;;;;;;;;;;6168536;23;20020;-92
2022/08/02 09:38:11;;;;;;;0.20;0.20;;;;;;;;;;6168414;23;20087;-92
2022/08/02 09:40:38;;;;;;;0.20;0.20;;;;;;;;;;6168707;23;20023;-92
2022/08/02 09:43:04;;;;;;;0.20;0.20;;;;;;;;;;6168568;23;20019;-92
2022/08/02 09:45:33;;;;;;;0.20;0.20;;;;;;;;;;6192999;23;20346;-92
2022/08/02 09:47:59;;;;;;;0.20;0.20;;;;;;;;;;6168487;23;20340;-92
2022/08/02 09:50:27;;;;;;;0.20;0.20;;;;;;;;;;6194635;23;20024;-91
2022/08/02 09:52:55;;;;;;;0.20;0.20;;;;;;;;;;6218827;23;20012;-92
2022/08/02 09:55:24;;;;;;;0.20;0.20;;;;;;;;;;6168959;23;20012;-92
2022/08/02 09:58:21;;;;;;;0.20;0.20;;;;;;;;;;6244834;23;20049;-92
2022/08/02 10:00:51;;;;;;;0.20;0.20;;;;;;;;;;6192830;23;20047;-93
2022/08/02 10:03:18;;;;;;;0.20;0.20;;;;;;;;;;6167890;23;20020;-90
2022/08/02 10:05:47;;;;;;;0.10;0.10;;;;;;;;;;6168193;23;20023;-92
2022/08/02 10:08:13;;;;;;;0.20;0.20;;;;;;;;;;6167821;23;20037;-92
2022/08/02 10:10:39;;;;;;;0.17;0.17;;;;;;;;;;6167784;23;20095;-92
2022/08/02 10:13:05;;;;;;;0.20;0.20;;;;;;;;;;6168045;23;20015;-92
2022/08/02 10:15:31;;;;;;;0.15;0.15;;;;;;;;;;6169361;23;20014;-92
2022/08/02 10:17:57;;;;;;;0.20;0.20;;;;;;;;;;6192809;23;20082;-91
2022/08/02 10:20:23;;;;;;;0.15;0.15;;;;;;;;;;6168271;23;20012;-91
2022/08/02 10:22:50;;;;;;;0.22;0.22;;;;;;;;;;6168479;23;20012;-91
2022/08/02 10:25:16;;;;;;;0.20;0.20;;;;;;;;;;6168045;23;20129;-91
2022/08/02 10:27:42;;;;;;;0.15;0.15;;;;;;;;;;6168521;23;20433;-90
2022/08/02 10:30:10;;;;;;;0.20;0.20;;;;;;;;;;6169133;23;20078;-91
2022/08/02 10:32:37;;;;;;;0.20;0.20;;;;;;;;;;6243575;23;20321;-90
2022/08/02 10:35:11;;;;;;;0.10;0.10;;;;;;;;;;6167945;23;20464;-91
2022/08/02 10:37:38;;;;;;;0.20;0.20;;;;;;;;;;6169308;23;20066;-91
2022/08/02 10:40:04;;;;;;;0.20;0.20;;;;;;;;;;6170530;23;20012;-91
2022/08/02 10:42:42;;;;;;;0.20;0.20;;;;;;;;;;6169634;23;20465;-91
2022/08/02 10:45:10;;;;;;;0.20;0.20;;;;;;;;;;6219648;23;20019;-91
2022/08/02 10:47:36;;;;;;;0.20;0.20;;;;;;;;;;6169926;23;20016;-91
2022/08/02 10:50:02;;;;;;;0.20;0.20;;;;;;;;;;6169662;23;20472;-91
2022/08/02 10:52:31;;;;;;;0.20;0.20;;;;;;;;;;6169861;23;20346;-91
2022/08/02 10:54:58;;;;;;;0.20;0.20;;;;;;;;;;6170245;23;20421;-91
2022/08/02 10:57:25;;;;;;;0.20;0.20;;;;;;;;;;6170109;23;20446;-91
2022/08/02 10:59:52;;;;;;;0.20;0.20;;;;;;;;;;6169726;23;20028;-91
2022/08/02 11:02:34;;;;;;;0.20;0.20;;;;;;;;;;6169731;23;20012;-91
2022/08/02 11:05:01;;;;;;;0.20;0.20;;;;;;;;;;6195385;23;20380;-92
2022/08/02 11:07:40;;;;;;;0.20;0.20;;;;;;;;;;6170136;23;20012;-92
2022/08/02 11:10:25;;;;;;;0.20;0.20;;;;;;;;;;6169456;23;20051;-90
2022/08/02 11:13:25;;;;;;;0.20;0.20;;;;;;;;;;6195319;23;20293;-89
2022/08/02 11:16:00;;;;;;;0.20;0.20;;;;;;;;;;6181142;23;20015;-93
2022/08/02 11:18:45;;;;;;;0.20;0.20;;;;;;;;;;6168684;23;20012;-89
2022/08/02 11:21:40;;;;;;;0.38;0.38;;;;;;;;;;6196374;23;20087;-90
2022/08/02 11:24:26;;;;;;;0.22;0.22;;;;;;;;;;6200381;23;20100;-91
2022/08/02 11:26:54;;;;;;;0.20;0.20;;;;;;;;;;6170543;23;20016;-93
2022/08/02 11:29:21;;;;;;;0.20;0.20;;;;;;;;;;6194533;23;20016;-93
2022/08/02 11:31:47;;;;;;;0.20;0.20;;;;;;;;;;6170819;23;20019;-92
2022/08/02 11:34:13;;;;;;;0.20;0.20;;;;;;;;;;6170159;23;20012;-93
2022/08/02 11:36:58;;;;;;;0.20;0.20;;;;;;;;;;6170575;23;20008;-93
2022/08/02 11:39:24;;;;;;;0.20;0.20;;;;;;;;;;6170127;23;20019;-91
2022/08/02 11:41:50;;;;;;;0.20;0.20;;;;;;;;;;6169368;23;20012;-90
2022/08/02 11:44:16;;;;;;;0.40;0.40;;;;;;;;;;6194105;23;20019;-91
2022/08/02 11:46:42;;;;;;;0.20;0.20;;;;;;;;;;6168685;23;20016;-90
2022/08/02 11:49:15;;;;;;;0.20;0.20;;;;;;;;;;6193912;23;20383;-91
2022/08/02 11:51:53;;;;;;;0.20;0.20;;;;;;;;;;6194462;23;20019;-91
2022/08/02 11:54:27;;;;;;;0.20;0.20;;;;;;;;;;6169727;23;20012;-91
2022/08/02 11:56:53;;;;;;;0.20;0.20;;;;;;;;;;6169256;23;20008;-91
2022/08/02 11:59:19;;;;;;;0.20;0.20;;;;;;;;;;6169364;23;20095;-91
2022/08/02 12:01:45;;;;;;;0.17;0.17;;;;;;;;;;6169118;23;20055;-91
2022/08/02 12:04:11;;;;;;;0.15;0.15;;;;;;;;;;6193905;23;20342;-91
2022/08/02 12:06:37;;;;;;;0.20;0.20;;;;;;;;;;6169483;23;20012;-91
2022/08/02 12:09:03;;;;;;;0.20;0.20;;;;;;;;;;6193641;23;20417;-91
2022/08/02 12:11:29;;;;;;;0.20;0.20;;;;;;;;;;6193846;23;20053;-91
2022/08/02 12:13:56;;;;;;;0.22;0.22;;;;;;;;;;6169530;23;20464;-92
2022/08/02 12:19:22;;;;;;;0.20;0.20;;;;;;;;;;6197303;23;20434;-93
2022/08/02 12:21:49;;;;;;;0.20;0.20;;;;;;;;;;6193756;23;20126;-94
2022/08/02 12:24:26;;;;;;;0.20;0.20;;;;;;;;;;6169177;23;20012;-93
2022/08/02 12:26:53;;;;;;;0.20;0.20;;;;;;;;;;6169714;23;20008;-93
2022/08/02 12:29:28;;;;;;;0.10;0.10;;;;;;;;;;6194407;23;20012;-92
2022/08/02 12:31:54;;;;;;;0.20;0.20;;;;;;;;;;6169079;23;20400;-93
2022/08/02 12:34:21;;;;;;;0.63;0.52;;;;;;;;;;6168823;23;20070;-91
2022/08/02 12:37:06;;;;;;;0.20;0.20;;;;;;;;;;6168438;23;20456;-92
2022/08/02 12:39:43;;;;;;;0.20;0.20;;;;;;;;;;6168907;23;20016;-91
2022/08/02 12:42:09;;;;;;;0.20;0.20;;;;;;;;;;6168917;23;20430;-92
2022/08/02 12:44:37;;;;;;;0.20;0.20;;;;;;;;;;6169070;23;20016;-92
2022/08/02 12:47:06;;;;;;;0.20;0.20;;;;;;;;;;6168671;23;20016;-92
2022/08/02 12:49:33;;;;;;;0.20;0.20;;;;;;;;;;6168328;23;20012;-93
2022/08/02 12:51:59;;;;;;;0.13;0.13;;;;;;;;;;6169080;23;20012;-91
2022/08/02 12:54:31;;;;;;;0.28;0.28;;;;;;;;;;6193655;23;20016;-91
2022/08/02 12:56:57;;;;;;;0.20;0.20;;;;;;;;;;6169119;23;20503;-93
2022/08/02 12:59:33;;;;;;;0.20;0.20;;;;;;;;;;6192630;23;20095;-92
2022/08/02 13:02:03;;;;;;;0.20;0.20;;;;;;;;;;6168663;23;20020;-92
2022/08/02 13:04:29;;;;;;;0.15;0.15;;;;;;;;;;6169002;23;20043;-93
2022/08/02 13:06:55;;;;;;;0.20;0.20;;;;;;;;;;6169239;23;20051;-91
2022/08/02 13:09:21;;;;;;;0.15;0.15;;;;;;;;;;6168389;23;20193;-90
2022/08/02 13:11:47;;;;;;;0.22;0.22;;;;;;;;;;6168220;23;20019;-90
2022/08/02 13:14:13;;;;;;;0.20;0.20;;;;;;;;;;6168524;23;20019;-91
2022/08/02 13:16:40;;;;;;;0.20;0.20;;;;;;;;;;6168501;23;20130;-91
2022/08/02 13:19:05;;;;;;;0.20;0.20;;;;;;;;;;6193511;23;20051;-90
2022/08/02 13:21:32;;;;;;;0.13;0.13;;;;;;;;;;6168743;23;20008;-91
2022/08/02 13:23:57;;;;;;;0.17;0.17;;;;;;;;;;6193653;23;20066;-91
2022/08/02 13:26:25;;;;;;;0.17;0.17;;;;;;;;;;6168545;23;20012;-90
2022/08/02 13:28:51;;;;;;;0.20;0.20;;;;;;;;;;6168733;23;20012;-91
2022/08/02 13:31:17;;;;;;;0.20;0.20;;;;;;;;;;6168221;23;20012;-91
2022/08/02 13:33:43;;;;;;;0.20;0.20;;;;;;;;;;6167537;23;20016;-91
2022/08/02 13:36:09;;;;;;;0.20;0.20;;;;;;;;;;6168245;23;20012;-91
2022/08/02 13:38:35;;;;;;;0.13;0.13;;;;;;;;;;6168107;23;20311;-91
2022/08/02 13:41:10;;;;;;;0.10;0.10;;;;;;;;;;6168459;23;20023;-91
2022/08/02 13:43:39;;;;;;;0.10;0.10;;;;;;;;;;6170156;23;20077;-92
2022/08/02 13:46:05;;;;;;;0.15;0.15;;;;;;;;;;6167874;23;20054;-91
2022/08/02 13:48:31;;;;;;;0.20;0.20;;;;;;;;;;6167871;23;20023;-93
2022/08/02 13:50:57;;;;;;;0.17;0.17;;;;;;;;;;6168164;23;20020;-91
2022/08/02 13:53:23;;;;;;;0.20;0.20;;;;;;;;;;6167903;23;20091;-91
2022/08/02 13:55:49;;;;;;;0.17;0.17;;;;;;;;;;6191602;23;20020;-92
2022/08/02 13:58:16;;;;;;;0.10;0.10;;;;;;;;;;6167758;23;20012;-91
2022/08/02 14:00:42;;;;;;;0.20;0.20;;;;;;;;;;6167819;23;20020;-91
2022/08/02 14:03:09;;;;;;;0.10;0.10;;;;;;;;;;6167806;23;20053;-90
2022/08/02 14:05:38;;;;;;;0.20;0.20;;;;;;;;;;6167887;23;20035;-92
2022/08/02 14:08:04;;;;;;;0.20;0.20;;;;;;;;;;6167953;23;20520;-91
2022/08/02 14:10:30;;;;;;;0.10;0.10;;;;;;;;;;6168195;23;20044;-91
2022/08/02 14:12:56;;;;;;;0.10;0.10;;;;;;;;;;6192659;23;20008;-91
2022/08/02 14:15:22;;;;;;;0.20;0.20;;;;;;;;;;6167819;23;20083;-91
2022/08/02 14:17:48;;;;;;;0.20;0.20;;;;;;;;;;6167952;23;20051;-91
2022/08/02 14:20:14;;;;;;;0.20;0.20;;;;;;;;;;6168124;23;20452;-91
2022/08/02 14:22:40;;;;;;;0.15;0.15;;;;;;;;;;6192659;23;20012;-91
2022/08/02 14:25:07;;;;;;;0.10;0.10;;;;;;;;;;6168005;23;20012;-91
2022/08/02 14:27:33;;;;;;;0.10;0.10;;;;;;;;;;6168057;23;20016;-91
2022/08/02 14:29:59;;;;;;;0.20;0.20;;;;;;;;;;6167290;23;20500;-91
2022/08/02 14:32:25;;;;;;;0.17;0.17;;;;;;;;;;6192531;23;20012;-91
2022/08/02 14:34:52;;;;;;;0.20;0.20;;;;;;;;;;6167916;23;20019;-92
2022/08/02 14:37:18;;;;;;;0.10;0.10;;;;;;;;;;6168282;23;20099;-91
2022/08/02 14:39:44;;;;;;;0.10;0.10;;;;;;;;;;6167880;23;20016;-91
2022/08/02 14:42:10;;;;;;;0.13;0.13;;;;;;;;;;6193362;23;20087;-91
2022/08/02 14:44:37;;;;;;;0.20;0.20;;;;;;;;;;6195036;23;20020;-90
2022/08/02 14:47:04;;;;;;;0.25;0.25;;;;;;;;;;6171024;23;20377;-90
2022/08/02 14:49:30;;;;;;;0.20;0.20;;;;;;;;;;6195220;23;20073;-90